createdAt,value
2023-04-11T00:03:00.890Z,11.40
2023-04-11T00:07:00.246Z,12.10
2023-04-11T00:11:00.204Z,12.50
2023-04-11T00:15:00.369Z,20.50
2023-04-11T00:19:00.455Z,15.30
2023-04-11T00:23:00.408Z,13.20
2023-04-11T00:27:00.525Z,17.60
2023-04-11T00:31:01.222Z,13.20
2023-04-11T00:35:00.743Z,14.30
2023-04-11T00:39:00.499Z,14.00
2023-04-11T00:43:00.116Z,11.40
2023-04-11T00:51:00.776Z,15.50
2023-04-11T00:55:01.285Z,10.10
2023-04-11T00:59:00.281Z,9.90
2023-04-11T01:03:01.125Z,13.60
2023-04-11T01:07:04.838Z,12.20
2023-04-11T01:11:01.592Z,15.40
2023-04-11T01:15:00.762Z,13.20
2023-04-11T01:19:00.498Z,11.90
2023-04-11T01:23:01.552Z,11.30
2023-04-11T01:27:02.211Z,10.50
2023-04-11T01:31:00.558Z,11.80
2023-04-11T01:35:03.065Z,13.40
2023-04-11T01:39:00.650Z,15.80
2023-04-11T01:43:02.102Z,11.50
2023-04-11T01:47:00.880Z,14.50
2023-04-11T01:51:00.365Z,10.60
2023-04-11T01:55:00.595Z,10.00
2023-04-11T02:03:00.692Z,9.50
2023-04-11T02:07:00.464Z,11.30
2023-04-11T02:11:00.507Z,11.30
2023-04-11T02:15:00.571Z,11.70
2023-04-11T02:23:03.325Z,16.50
2023-04-11T02:27:00.726Z,12.70
2023-04-11T02:31:01.213Z,11.50
2023-04-11T02:35:01.121Z,14.80
2023-04-11T02:39:00.687Z,13.00
2023-04-11T02:43:00.548Z,10.70
2023-04-11T02:47:00.781Z,16.20
2023-04-11T02:51:00.567Z,17.80
2023-04-11T02:55:00.820Z,14.70
2023-04-11T02:59:00.612Z,12.90
2023-04-11T03:07:00.704Z,16.10
2023-04-11T03:11:00.980Z,13.50
2023-04-11T03:19:00.827Z,11.30
2023-04-11T03:23:00.559Z,16.90
2023-04-11T03:27:00.811Z,13.30
2023-04-11T03:31:00.894Z,17.10
2023-04-11T03:35:00.977Z,11.70
2023-04-11T03:39:00.693Z,12.90
2023-04-11T03:43:02.996Z,15.20
2023-04-11T03:47:00.845Z,15.40
2023-04-11T03:55:01.491Z,14.80
2023-04-11T03:59:00.830Z,14.20
2023-04-11T04:03:01.038Z,10.60
2023-04-11T04:07:01.298Z,8.80
2023-04-11T04:11:00.890Z,14.30
2023-04-11T04:15:01.240Z,11.60
2023-04-11T04:19:01.548Z,9.90
2023-04-11T04:23:03.536Z,9.30
2023-04-11T04:27:00.980Z,8.70
2023-04-11T04:31:01.157Z,13.90
2023-04-11T04:35:01.286Z,12.40
2023-04-11T04:39:01.105Z,11.70
2023-04-11T04:43:01.079Z,12.60
2023-04-11T04:47:00.833Z,11.20
2023-04-11T04:51:02.031Z,14.60
2023-04-11T04:55:00.886Z,16.20
2023-04-11T04:59:01.038Z,13.00
2023-04-11T05:03:04.525Z,13.80
2023-04-11T05:07:01.025Z,13.00
2023-04-11T05:11:00.975Z,13.70
2023-04-11T05:15:01.260Z,13.60
2023-04-11T05:19:00.878Z,14.00
2023-04-11T05:23:01.122Z,14.70
2023-04-11T05:27:00.949Z,12.50
2023-04-11T05:31:01.326Z,12.50
2023-04-11T05:35:01.110Z,17.50
2023-04-11T05:39:01.337Z,15.50
2023-04-11T05:47:01.132Z,18.50
2023-04-11T05:51:01.007Z,12.80
2023-04-11T05:55:01.155Z,16.20
2023-04-11T05:59:00.988Z,15.60
2023-04-11T06:03:01.650Z,16.20
2023-04-11T06:07:02.784Z,12.80
2023-04-11T06:11:01.164Z,15.00
2023-04-11T06:15:01.771Z,12.70
2023-04-11T06:19:01.319Z,12.10
2023-04-11T06:23:01.080Z,11.70
2023-04-11T06:27:01.235Z,15.30
2023-04-11T06:35:01.814Z,16.00
2023-04-11T06:39:01.117Z,11.40
2023-04-11T06:43:01.495Z,13.50
2023-04-11T06:47:02.003Z,14.70
2023-04-11T06:51:01.331Z,12.20
2023-04-11T06:55:01.180Z,14.30
2023-04-11T06:59:01.520Z,14.50
2023-04-11T07:03:06.656Z,11.60
2023-04-11T07:07:01.268Z,16.90
2023-04-11T07:11:01.193Z,15.00
2023-04-11T07:15:02.676Z,11.00
2023-04-11T07:19:02.266Z,13.10
2023-04-11T07:23:02.395Z,11.00
2023-04-11T07:27:01.463Z,9.10
2023-04-11T07:31:01.261Z,8.30
2023-04-11T07:35:01.372Z,13.10
2023-04-11T07:39:03.560Z,11.30
2023-04-11T07:43:01.475Z,13.30
2023-04-11T07:47:01.496Z,12.20
2023-04-11T07:51:01.591Z,7.20
2023-04-11T07:55:01.954Z,13.80
2023-04-11T07:59:02.267Z,10.00
2023-04-11T08:03:05.220Z,14.90
2023-04-11T08:15:01.504Z,11.30
2023-04-11T08:19:01.449Z,12.90
2023-04-11T08:23:05.933Z,12.80
2023-04-11T08:27:01.596Z,11.40
2023-04-11T08:31:03.231Z,13.70
2023-04-11T08:35:01.742Z,10.20
2023-04-11T08:43:01.949Z,9.80
2023-04-11T08:47:01.971Z,12.10
2023-04-11T08:51:01.658Z,6.90
2023-04-11T08:55:01.783Z,10.50
2023-04-11T08:59:01.645Z,10.50
2023-04-11T09:03:03.085Z,10.30
2023-04-11T09:07:02.659Z,10.10
2023-04-11T09:11:01.525Z,12.60
2023-04-11T09:15:16.791Z,13.20
2023-04-11T09:19:02.464Z,9.50
2023-04-11T09:23:01.875Z,10.10
2023-04-11T09:27:06.206Z,12.10
2023-04-11T09:31:01.847Z,6.80
2023-04-11T09:35:10.813Z,12.00
2023-04-11T09:39:15.573Z,9.30
2023-04-11T09:43:03.833Z,5.60
2023-04-11T09:51:03.720Z,10.50
2023-04-11T09:55:03.716Z,5.80
2023-04-11T09:59:03.227Z,7.30
2023-04-11T10:03:02.199Z,10.10
2023-04-11T10:07:08.124Z,9.40
2023-04-11T10:11:03.134Z,8.20
2023-04-11T10:15:06.127Z,8.80
2023-04-11T10:19:21.547Z,9.70
2023-04-11T10:23:01.996Z,7.00
2023-04-11T10:27:03.621Z,6.00
2023-04-11T10:31:03.472Z,10.80
2023-04-11T10:35:20.682Z,7.50
2023-04-11T10:39:02.127Z,10.60
2023-04-11T10:43:18.778Z,7.70
2023-04-11T10:47:02.006Z,8.70
2023-04-11T10:51:21.532Z,7.60
2023-04-11T10:55:14.037Z,5.60
2023-04-11T10:59:01.960Z,6.30
2023-04-11T11:03:03.128Z,6.70
2023-04-11T11:07:03.789Z,11.20
2023-04-11T11:11:05.348Z,5.60
2023-04-11T11:15:11.978Z,6.70
2023-04-11T11:19:05.300Z,9.20
2023-04-11T11:23:04.539Z,10.50
2023-04-11T11:27:02.319Z,5.10
2023-04-11T11:31:03.006Z,7.90
2023-04-11T11:35:11.834Z,10.40
2023-04-11T11:39:04.343Z,7.60
2023-04-11T11:43:02.375Z,8.80
2023-04-11T11:47:03.789Z,7.40
2023-04-11T11:51:02.233Z,5.60
2023-04-11T11:55:04.956Z,5.80
2023-04-11T11:59:04.115Z,7.60
2023-04-11T12:03:03.157Z,6.40
2023-04-11T12:07:07.129Z,9.70
2023-04-11T12:11:11.104Z,6.80
2023-04-11T12:15:02.677Z,8.00
2023-04-11T12:19:03.484Z,6.90
2023-04-11T12:23:02.257Z,8.60
2023-04-11T12:27:07.257Z,10.70
2023-04-11T12:31:02.450Z,8.80
2023-04-11T12:35:04.216Z,7.10
2023-04-11T12:39:02.460Z,10.50
2023-04-11T12:43:02.148Z,11.00
2023-04-11T12:51:02.542Z,10.50
2023-04-11T12:55:02.979Z,11.10
2023-04-11T12:59:02.218Z,9.60
2023-04-11T13:07:02.712Z,7.00
2023-04-11T13:15:02.857Z,9.80
2023-04-11T13:19:02.316Z,10.90
2023-04-11T13:23:02.336Z,12.50
2023-04-11T13:27:02.482Z,10.70
2023-04-11T13:31:02.409Z,12.80
2023-04-11T13:39:02.705Z,13.80
2023-04-11T13:43:02.378Z,12.40
2023-04-11T13:47:02.674Z,11.60
2023-04-11T13:51:03.243Z,9.80
2023-04-11T13:55:03.365Z,11.50
2023-04-11T13:59:02.422Z,13.50
2023-04-11T14:03:03.766Z,11.00
2023-04-11T14:07:02.391Z,15.20
2023-04-11T14:11:02.728Z,10.10
2023-04-11T14:15:03.647Z,12.80
2023-04-11T14:19:02.517Z,12.60
2023-04-11T14:23:02.472Z,9.40
2023-04-11T14:27:03.160Z,16.20
2023-04-11T14:31:02.650Z,11.00
2023-04-11T14:35:03.775Z,14.30
2023-04-11T14:39:04.027Z,15.10
2023-04-11T14:43:02.509Z,10.00
2023-04-11T14:47:02.690Z,13.50
2023-04-11T14:51:02.854Z,11.80
2023-04-11T14:55:02.926Z,11.90
2023-04-11T14:59:02.941Z,9.80
2023-04-11T15:03:03.150Z,7.60
2023-04-11T15:07:03.710Z,5.30
2023-04-11T15:11:02.792Z,5.50
2023-04-11T15:19:03.200Z,3.90
2023-04-11T15:23:02.551Z,5.30
2023-04-11T15:27:02.732Z,3.40
2023-04-11T15:31:04.841Z,5.50
2023-04-11T15:35:03.085Z,4.20
2023-04-11T15:39:05.029Z,6.40
2023-04-11T15:43:03.332Z,5.10
2023-04-11T15:47:02.774Z,7.50
2023-04-11T15:51:07.343Z,8.90
2023-04-11T15:59:02.829Z,4.00
2023-04-11T16:03:04.107Z,6.60
2023-04-11T16:07:04.701Z,4.90
2023-04-11T16:11:02.834Z,5.20
2023-04-11T16:15:03.527Z,5.70
2023-04-11T16:19:03.020Z,4.60
2023-04-11T16:23:02.900Z,4.00
2023-04-11T16:27:03.000Z,5.40
2023-04-11T16:31:03.350Z,4.50
2023-04-11T16:35:03.259Z,5.60
2023-04-11T16:39:03.495Z,5.60
2023-04-11T16:43:02.854Z,4.80
2023-04-11T16:47:02.926Z,2.80
2023-04-11T16:51:03.187Z,3.80
2023-04-11T16:55:03.513Z,3.60
2023-04-11T16:59:03.802Z,3.30
2023-04-11T17:03:03.156Z,3.60
2023-04-11T17:07:03.052Z,2.40
2023-04-11T17:11:05.689Z,3.30
2023-04-11T17:15:03.577Z,4.60
2023-04-11T17:19:03.247Z,4.10
2023-04-11T17:23:02.897Z,4.40
2023-04-11T17:27:03.316Z,4.30
2023-04-11T17:31:09.720Z,2.90
2023-04-11T17:35:05.665Z,2.60
2023-04-11T17:39:03.409Z,4.70
2023-04-11T17:43:03.196Z,2.40
2023-04-11T17:47:02.985Z,3.50
2023-04-11T17:51:04.423Z,3.20
2023-04-11T18:03:03.494Z,6.90
2023-04-11T18:07:03.018Z,4.00
2023-04-11T18:11:03.607Z,5.90
2023-04-11T18:15:04.901Z,5.50
2023-04-11T18:19:03.252Z,6.80
2023-04-11T18:23:03.056Z,5.20
2023-04-11T18:27:03.810Z,5.60
2023-04-11T18:31:03.304Z,4.20
2023-04-11T18:35:06.205Z,3.50
2023-04-11T18:39:03.742Z,4.60
2023-04-11T18:43:03.212Z,4.80
2023-04-11T18:47:05.786Z,4.80
2023-04-11T18:51:04.059Z,4.60
2023-04-11T18:55:03.484Z,8.70
2023-04-11T18:59:07.152Z,4.70
2023-04-11T19:03:04.042Z,5.60
2023-04-11T19:07:03.305Z,7.30
2023-04-11T19:11:03.289Z,8.40
2023-04-11T19:19:03.935Z,6.50
2023-04-11T19:23:03.412Z,4.70
2023-04-11T19:27:03.540Z,5.60
2023-04-11T19:31:03.333Z,5.10
2023-04-11T19:39:03.497Z,4.60
2023-04-11T19:43:03.310Z,2.80
2023-04-11T19:47:03.588Z,3.00
2023-04-11T19:51:03.426Z,2.70
2023-04-11T19:55:03.850Z,3.70
2023-04-11T19:59:03.539Z,3.10
2023-04-11T20:03:04.779Z,3.70
2023-04-11T20:07:03.396Z,3.20
2023-04-11T20:15:04.297Z,2.70
2023-04-11T20:19:04.110Z,3.40
2023-04-11T20:23:04.169Z,5.60
2023-04-11T20:27:03.408Z,4.40
2023-04-11T20:31:03.733Z,3.30
2023-04-11T20:35:04.545Z,2.30
2023-04-11T20:39:04.101Z,3.80
2023-04-11T20:43:04.498Z,3.40
2023-04-11T20:47:03.798Z,3.80
2023-04-11T20:51:03.729Z,3.40
2023-04-11T20:55:04.777Z,4.00
2023-04-11T20:59:03.731Z,5.30
2023-04-11T21:03:03.930Z,4.60
2023-04-11T21:07:03.535Z,2.70
2023-04-11T21:11:03.915Z,2.40
2023-04-11T21:15:04.710Z,1.10
2023-04-11T21:23:03.809Z,2.20
2023-04-11T21:27:03.714Z,1.90
2023-04-11T21:31:03.949Z,1.90
2023-04-11T21:35:06.553Z,3.80
2023-04-11T21:39:05.727Z,2.40
2023-04-11T21:43:04.576Z,2.10
2023-04-11T21:47:04.122Z,1.80
2023-04-11T21:51:04.319Z,1.30
2023-04-11T21:55:05.887Z,1.50
2023-04-11T21:59:03.630Z,2.20
2023-04-11T22:03:04.120Z,1.80
2023-04-11T22:07:03.827Z,2.10
2023-04-11T22:11:09.092Z,2.10
2023-04-11T22:15:05.592Z,1.30
2023-04-11T22:19:03.743Z,1.90
2023-04-11T22:23:05.296Z,2.50
2023-04-11T22:27:05.318Z,3.40
2023-04-11T22:31:04.124Z,1.70
2023-04-11T22:35:04.667Z,2.20
2023-04-11T22:39:04.577Z,3.50
2023-04-11T22:43:04.915Z,5.10
2023-04-11T22:47:06.215Z,3.10
2023-04-11T22:51:05.014Z,5.10
2023-04-11T22:55:04.550Z,5.20
2023-04-11T22:59:04.004Z,5.80
2023-04-11T23:03:04.282Z,5.20
2023-04-11T23:07:04.122Z,5.20
2023-04-11T23:11:04.401Z,6.10
2023-04-11T23:15:04.891Z,5.00
2023-04-11T23:19:03.930Z,4.60
2023-04-11T23:23:04.578Z,6.80
2023-04-11T23:27:03.896Z,4.10
2023-04-11T23:31:04.624Z,6.50
2023-04-11T23:43:04.146Z,8.20
2023-04-11T23:47:03.976Z,9.80
2023-04-11T23:51:04.421Z,8.10
2023-04-11T23:55:06.291Z,11.30
2023-04-11T23:59:04.075Z,13.70
